createdAt,value
2018-11-06T00:01:13.914Z,56.57
2018-11-06T00:03:54.434Z,55.57
2018-11-06T00:06:31.776Z,53.63
2018-11-06T00:09:09.245Z,55.80
2018-11-06T00:11:47.078Z,52.93
2018-11-06T00:14:26.214Z,55.37
2018-11-06T00:17:01.587Z,54.90
2018-11-06T00:19:38.860Z,71.77
2018-11-06T00:22:16.614Z,57.80
2018-11-06T00:24:54.173Z,54.77
2018-11-06T00:27:31.732Z,54.85
2018-11-06T00:30:09.407Z,56.47
2018-11-06T00:32:46.936Z,56.80
2018-11-06T00:35:24.654Z,53.92
2018-11-06T00:38:01.932Z,55.03
2018-11-06T00:40:39.117Z,57.43
2018-11-06T00:43:16.595Z,60.07
2018-11-06T00:45:53.423Z,57.60
2018-11-06T00:48:31.113Z,56.90
2018-11-06T00:51:08.431Z,56.90
2018-11-06T00:53:50.055Z,54.53
2018-11-06T00:56:27.950Z,54.10
2018-11-06T00:59:04.880Z,60.50
2018-11-06T01:01:55.461Z,62.43
2018-11-06T01:04:38.193Z,60.67
2018-11-06T01:07:22.533Z,63.43
2018-11-06T01:10:00.475Z,60.20
2018-11-06T01:12:37.705Z,73.30
2018-11-06T01:15:16.918Z,56.67
2018-11-06T01:17:54.249Z,62.97
2018-11-06T01:20:31.299Z,69.87
2018-11-06T01:23:10.370Z,56.53
2018-11-06T01:25:47.170Z,57.83
2018-11-06T01:28:26.359Z,59.53
2018-11-06T01:31:04.054Z,54.83
2018-11-06T01:33:33.501Z,60.50
2018-11-06T01:36:03.372Z,54.15
2018-11-06T01:38:32.967Z,67.20
2018-11-06T01:41:02.491Z,62.20
2018-11-06T01:43:32.135Z,56.93
2018-11-06T01:46:01.546Z,50.67
2018-11-06T01:48:30.969Z,55.90
2018-11-06T01:51:01.760Z,57.63
2018-11-06T01:53:31.199Z,57.83
2018-11-06T01:56:00.809Z,53.33
2018-11-06T01:58:30.286Z,50.00
2018-11-06T02:00:59.937Z,49.10
2018-11-06T02:03:29.576Z,53.40
2018-11-06T02:05:59.284Z,50.77
2018-11-06T02:08:32.759Z,49.27
2018-11-06T02:11:02.194Z,50.07
2018-11-06T02:13:32.146Z,49.53
2018-11-06T02:16:01.831Z,47.60
2018-11-06T02:18:31.579Z,51.90
2018-11-06T02:21:01.139Z,53.00
2018-11-06T02:23:30.558Z,53.20
2018-11-06T02:26:00.051Z,53.50
2018-11-06T02:28:29.472Z,55.50
2018-11-06T02:30:58.870Z,51.70
2018-11-06T02:33:28.868Z,49.17
2018-11-06T02:35:58.243Z,54.43
2018-11-06T02:38:27.650Z,49.20
2018-11-06T02:40:57.084Z,49.87
2018-11-06T02:43:26.518Z,51.08
2018-11-06T02:45:56.368Z,50.00
2018-11-06T02:48:26.663Z,51.07
2018-11-06T02:50:56.297Z,57.90
2018-11-06T02:53:25.758Z,56.00
2018-11-06T02:55:55.260Z,54.93
2018-11-06T02:58:24.639Z,59.00
2018-11-06T03:00:54.137Z,49.63
2018-11-06T03:03:25.388Z,53.37
2018-11-06T03:05:54.857Z,56.80
2018-11-06T03:08:24.716Z,62.55
2018-11-06T03:10:54.138Z,62.98
2018-11-06T03:13:23.707Z,54.53
2018-11-06T03:15:53.089Z,50.90
2018-11-06T03:18:22.901Z,54.97
2018-11-06T03:20:52.367Z,58.70
2018-11-06T03:23:21.758Z,54.60
2018-11-06T03:25:51.258Z,54.63
2018-11-06T03:28:20.654Z,45.60
2018-11-06T03:30:50.292Z,61.27
2018-11-06T03:33:20.582Z,51.33
2018-11-06T03:35:50.100Z,59.60
2018-11-06T03:38:19.521Z,53.80
2018-11-06T03:40:49.170Z,48.83
2018-11-06T03:43:18.612Z,46.73
2018-11-06T03:45:48.777Z,49.20
2018-11-06T03:48:18.146Z,48.10
2018-11-06T03:50:47.623Z,47.03
2018-11-06T03:53:17.037Z,51.35
2018-11-06T03:55:46.722Z,50.80
2018-11-06T03:58:16.404Z,50.83
2018-11-06T04:00:46.074Z,49.73
2018-11-06T04:03:15.576Z,50.52
2018-11-06T04:05:45.238Z,48.27
2018-11-06T04:08:14.636Z,47.62
2018-11-06T04:10:43.998Z,45.63
2018-11-06T04:13:13.388Z,47.40
2018-11-06T04:15:46.351Z,51.70
2018-11-06T04:18:15.795Z,48.57
2018-11-06T04:20:45.408Z,47.73
2018-11-06T04:23:14.999Z,47.20
2018-11-06T04:25:44.483Z,43.10
2018-11-06T04:28:14.134Z,47.80
2018-11-06T04:30:43.569Z,53.93
2018-11-06T04:33:13.017Z,48.17
2018-11-06T04:35:42.644Z,49.90
2018-11-06T04:38:12.041Z,44.17
2018-11-06T04:40:41.476Z,45.83
2018-11-06T04:43:10.917Z,40.55
2018-11-06T04:45:40.676Z,46.20
2018-11-06T04:48:10.302Z,48.10
2018-11-06T04:50:39.754Z,44.10
2018-11-06T04:53:09.203Z,45.60
2018-11-06T04:55:38.636Z,45.93
2018-11-06T04:58:08.053Z,44.93
2018-11-06T05:00:37.556Z,46.77
2018-11-06T05:03:07.090Z,49.60
2018-11-06T05:05:36.720Z,50.07
2018-11-06T05:08:06.367Z,48.57
2018-11-06T05:10:35.980Z,46.30
2018-11-06T05:13:06.540Z,44.90
2018-11-06T05:15:36.120Z,43.73
2018-11-06T05:18:06.615Z,45.80
2018-11-06T05:20:36.101Z,45.73
2018-11-06T05:23:06.502Z,42.30
2018-11-06T05:25:35.945Z,45.33
2018-11-06T05:28:06.227Z,44.63
2018-11-06T05:30:35.681Z,45.70
2018-11-06T05:33:06.641Z,45.32
2018-11-06T05:35:36.295Z,43.23
2018-11-06T05:38:06.508Z,48.95
2018-11-06T05:41:02.092Z,42.97
2018-11-06T05:43:31.511Z,42.60
2018-11-06T05:46:01.273Z,38.63
2018-11-06T05:48:31.057Z,43.10
2018-11-06T05:51:00.685Z,41.47
2018-11-06T05:53:30.814Z,42.87
2018-11-06T05:56:00.258Z,41.87
2018-11-06T05:58:29.777Z,40.20
2018-11-06T06:00:59.199Z,42.17
2018-11-06T06:03:29.056Z,42.57
2018-11-06T06:06:00.515Z,41.37
2018-11-06T06:08:29.929Z,36.80
2018-11-06T06:10:59.423Z,42.07
2018-11-06T06:13:28.824Z,43.67
2018-11-06T06:15:58.336Z,39.07
2018-11-06T06:18:27.835Z,42.00
2018-11-06T06:20:57.754Z,41.77
2018-11-06T06:23:27.207Z,46.17
2018-11-06T06:25:56.682Z,39.03
2018-11-06T06:28:26.400Z,43.60
2018-11-06T06:31:04.197Z,40.48
2018-11-06T06:33:37.716Z,42.67
2018-11-06T06:36:11.343Z,43.87
2018-11-06T06:38:40.922Z,43.90
2018-11-06T06:41:10.412Z,41.08
2018-11-06T06:43:39.858Z,44.00
2018-11-06T06:46:09.357Z,39.70
2018-11-06T06:48:39.070Z,38.90
2018-11-06T06:51:08.789Z,42.73
2018-11-06T06:53:39.690Z,40.40
2018-11-06T06:56:09.191Z,41.47
2018-11-06T06:58:38.676Z,39.17
2018-11-06T07:01:08.273Z,40.35
2018-11-06T07:03:37.794Z,41.70
2018-11-06T07:06:07.459Z,40.27
2018-11-06T07:08:37.211Z,41.87
2018-11-06T07:11:06.620Z,37.97
2018-11-06T07:13:36.572Z,42.30
2018-11-06T07:16:07.480Z,37.03
2018-11-06T07:18:37.259Z,37.50
2018-11-06T07:21:09.653Z,40.13
2018-11-06T07:23:39.222Z,42.10
2018-11-06T07:26:08.767Z,38.47
2018-11-06T07:28:38.395Z,42.00
2018-11-06T07:31:08.555Z,40.13
2018-11-06T07:33:43.581Z,38.97
2018-11-06T07:36:12.990Z,41.33
2018-11-06T07:38:42.420Z,38.47
2018-11-06T07:41:11.978Z,39.60
2018-11-06T07:43:42.385Z,40.90
2018-11-06T07:46:12.027Z,37.48
2018-11-06T07:48:41.415Z,39.73
2018-11-06T07:51:12.139Z,39.03
2018-11-06T07:53:41.615Z,40.10
2018-11-06T07:56:11.322Z,38.83
2018-11-06T07:58:41.690Z,39.50
2018-11-06T08:01:11.591Z,39.23
2018-11-06T08:03:41.240Z,39.40
2018-11-06T08:06:11.204Z,40.80
2018-11-06T08:08:41.463Z,37.50
2018-11-06T08:11:11.683Z,37.28
2018-11-06T08:13:46.659Z,37.27
2018-11-06T08:16:16.497Z,39.20
2018-11-06T08:18:45.968Z,38.27
2018-11-06T08:21:19.640Z,38.47
2018-11-06T08:23:49.320Z,38.30
2018-11-06T08:26:18.780Z,37.55
2018-11-06T08:28:48.344Z,37.77
2018-11-06T08:31:18.038Z,37.28
2018-11-06T08:33:51.656Z,36.30
2018-11-06T08:36:21.363Z,37.13
2018-11-06T08:38:51.002Z,36.67
2018-11-06T08:41:20.452Z,37.37
2018-11-06T08:43:49.900Z,37.97
2018-11-06T08:46:19.675Z,36.38
2018-11-06T08:48:49.160Z,35.40
2018-11-06T08:51:18.671Z,34.03
2018-11-06T08:53:48.507Z,37.07
2018-11-06T08:56:18.030Z,35.88
2018-11-06T08:58:49.197Z,34.73
2018-11-06T09:01:21.116Z,35.73
2018-11-06T09:03:50.854Z,35.52
2018-11-06T09:06:20.765Z,33.37
2018-11-06T09:08:51.092Z,35.93
2018-11-06T09:11:20.741Z,33.90
2018-11-06T09:13:51.355Z,33.07
2018-11-06T09:16:21.039Z,33.20
2018-11-06T09:18:50.501Z,34.90
2018-11-06T09:21:19.961Z,31.40
2018-11-06T09:23:50.432Z,32.67
2018-11-06T09:26:23.848Z,32.87
2018-11-06T09:28:53.556Z,32.50
2018-11-06T09:31:23.400Z,33.03
2018-11-06T09:33:52.811Z,32.37
2018-11-06T09:36:22.943Z,31.83
2018-11-06T09:38:52.487Z,31.90
2018-11-06T09:41:21.955Z,32.90
2018-11-06T09:43:51.347Z,33.42
2018-11-06T09:46:20.773Z,30.90
2018-11-06T09:48:50.234Z,30.43
2018-11-06T09:51:19.623Z,30.23
2018-11-06T09:53:49.158Z,29.23
2018-11-06T09:56:18.602Z,29.30
2018-11-06T09:58:48.258Z,31.20
2018-11-06T10:01:17.710Z,30.50
2018-11-06T10:03:47.068Z,31.83
2018-11-06T10:06:16.621Z,28.43
2018-11-06T10:08:45.969Z,32.93
2018-11-06T10:11:15.463Z,28.80
2018-11-06T10:13:45.141Z,28.73
2018-11-06T10:16:15.676Z,27.22
2018-11-06T10:18:45.164Z,28.40
2018-11-06T10:21:14.644Z,28.33
2018-11-06T10:23:44.277Z,29.27
2018-11-06T10:26:13.900Z,30.50
2018-11-06T10:28:43.263Z,27.43
2018-11-06T10:31:12.720Z,27.23
2018-11-06T10:33:42.164Z,27.33
2018-11-06T10:36:11.669Z,26.45
2018-11-06T10:38:41.124Z,25.20
2018-11-06T10:41:10.567Z,26.17
2018-11-06T10:43:40.062Z,25.77
2018-11-06T10:46:10.246Z,25.00
2018-11-06T10:48:39.683Z,24.47
2018-11-06T10:51:09.234Z,24.30
2018-11-06T10:53:38.622Z,23.93
2018-11-06T10:56:08.382Z,22.83
2018-11-06T10:58:37.797Z,23.60
2018-11-06T11:01:12.606Z,22.20
2018-11-06T11:03:47.312Z,22.07
2018-11-06T11:06:16.682Z,21.20
2018-11-06T11:08:50.674Z,21.37
2018-11-06T11:11:20.102Z,20.67
2018-11-06T11:13:49.766Z,20.83
2018-11-06T11:16:19.240Z,21.25
2018-11-06T11:18:48.634Z,20.67
2018-11-06T11:21:18.148Z,19.80
2018-11-06T11:23:47.562Z,18.67
2018-11-06T11:26:17.088Z,18.37
2018-11-06T11:28:46.514Z,19.93
2018-11-06T11:31:16.218Z,19.00
2018-11-06T11:33:45.807Z,18.73
2018-11-06T11:36:15.255Z,17.98
2018-11-06T11:38:44.853Z,17.43
2018-11-06T11:41:14.247Z,18.00
2018-11-06T11:43:43.656Z,18.93
2018-11-06T11:46:13.167Z,18.17
2018-11-06T11:48:42.695Z,17.13
2018-11-06T11:51:12.372Z,17.33
2018-11-06T11:53:41.780Z,18.43
2018-11-06T11:56:11.454Z,18.55
2018-11-06T11:58:43.249Z,17.77
2018-11-06T12:01:14.964Z,17.40
2018-11-06T12:03:44.410Z,17.93
2018-11-06T12:06:13.894Z,18.30
2018-11-06T12:08:43.292Z,17.60
2018-11-06T12:11:12.754Z,17.95
2018-11-06T12:13:42.250Z,17.67
2018-11-06T12:16:11.704Z,17.20
2018-11-06T12:18:41.663Z,16.70
2018-11-06T12:21:11.221Z,16.62
2018-11-06T12:23:40.609Z,16.73
2018-11-06T12:26:10.059Z,16.83
2018-11-06T12:28:39.720Z,16.33
2018-11-06T12:31:09.174Z,16.87
2018-11-06T12:33:38.690Z,15.63
2018-11-06T12:36:08.156Z,15.13
2018-11-06T12:38:37.702Z,15.50
2018-11-06T12:41:07.458Z,14.87
2018-11-06T12:43:37.077Z,15.20
2018-11-06T12:46:06.856Z,14.63
2018-11-06T12:48:36.397Z,14.77
2018-11-06T12:51:06.794Z,15.63
2018-11-06T12:53:36.858Z,15.37
2018-11-06T12:56:06.626Z,15.30
2018-11-06T12:58:36.066Z,14.97
2018-11-06T13:01:06.620Z,14.35
2018-11-06T13:03:36.149Z,16.37
2018-11-06T13:06:06.694Z,16.23
2018-11-06T13:08:36.200Z,17.10
2018-11-06T13:11:06.563Z,15.83
2018-11-06T13:13:36.121Z,15.57
2018-11-06T13:16:06.270Z,16.80
2018-11-06T13:18:35.681Z,16.87
2018-11-06T13:21:06.236Z,16.12
2018-11-06T13:23:35.652Z,15.77
2018-11-06T13:26:06.487Z,15.13
2018-11-06T13:28:36.024Z,15.77
2018-11-06T13:31:06.706Z,15.43
2018-11-06T13:33:36.099Z,15.40
2018-11-06T13:36:07.202Z,15.27
2018-11-06T13:38:36.744Z,15.83
2018-11-06T13:41:06.572Z,15.30
2018-11-06T13:43:36.149Z,15.40
2018-11-06T13:46:06.504Z,14.97
2018-11-06T13:48:35.938Z,14.87
2018-11-06T13:51:06.917Z,14.10
2018-11-06T13:53:36.425Z,14.57
2018-11-06T13:56:06.989Z,15.23
2018-11-06T13:58:36.622Z,14.00
2018-11-06T14:01:07.020Z,15.20
2018-11-06T14:03:37.435Z,13.80
2018-11-06T14:06:07.102Z,13.40
2018-11-06T14:08:37.266Z,13.50
2018-11-06T14:11:07.924Z,13.93
2018-11-06T14:13:37.305Z,14.20
2018-11-06T14:16:08.482Z,14.00
2018-11-06T14:18:38.023Z,14.67
2018-11-06T14:21:07.689Z,14.13
2018-11-06T14:23:37.321Z,14.87
2018-11-06T14:26:07.105Z,13.40
2018-11-06T14:28:36.686Z,13.73
2018-11-06T14:31:06.441Z,14.90
2018-11-06T14:33:35.883Z,15.33
2018-11-06T14:36:07.211Z,16.93
2018-11-06T14:38:37.372Z,15.87
2018-11-06T14:41:06.832Z,15.07
2018-11-06T14:43:37.023Z,15.90
2018-11-06T14:46:06.780Z,17.20
2018-11-06T14:48:36.278Z,16.07
2018-11-06T14:51:06.304Z,16.57
2018-11-06T14:53:35.828Z,17.97
2018-11-06T14:56:06.760Z,17.57
2018-11-06T14:58:36.464Z,18.17
2018-11-06T15:01:07.623Z,17.73
2018-11-06T15:03:37.177Z,18.03
2018-11-06T15:06:06.873Z,18.03
2018-11-06T15:08:36.314Z,17.70
2018-11-06T15:11:06.539Z,16.37
2018-11-06T15:13:36.284Z,16.97
2018-11-06T15:16:06.458Z,16.53
2018-11-06T15:18:35.988Z,16.57
2018-11-06T15:21:07.025Z,15.68
2018-11-06T15:23:36.390Z,15.70
2018-11-06T15:26:07.101Z,16.10
2018-11-06T15:28:38.636Z,15.13
2018-11-06T15:31:09.002Z,14.47
2018-11-06T15:33:38.761Z,15.53
2018-11-06T15:36:08.442Z,14.93
2018-11-06T15:38:38.172Z,14.67
2018-11-06T15:41:08.160Z,14.77
2018-11-06T15:43:38.355Z,14.87
2018-11-06T15:46:08.554Z,15.53
2018-11-06T15:48:38.181Z,16.40
2018-11-06T15:51:07.492Z,17.37
2018-11-06T15:53:36.911Z,16.63
2018-11-06T15:56:07.324Z,16.97
2018-11-06T15:58:36.853Z,16.40
2018-11-06T16:01:06.524Z,15.50
2018-11-06T16:03:35.920Z,15.07
2018-11-06T16:06:06.693Z,16.13
2018-11-06T16:08:36.262Z,17.00
2018-11-06T16:11:06.747Z,16.33
2018-11-06T16:13:37.464Z,17.63
2018-11-06T16:16:07.551Z,16.77
2018-11-06T16:18:37.286Z,17.43
2018-11-06T16:21:06.882Z,17.50
2018-11-06T16:23:36.179Z,16.20
2018-11-06T16:26:07.773Z,17.76
2018-11-06T16:28:37.663Z,17.23
2018-11-06T16:31:07.887Z,18.30
2018-11-06T16:33:37.325Z,18.73
2018-11-06T16:36:06.976Z,18.57
2018-11-06T16:38:36.447Z,19.37
2018-11-06T16:41:07.480Z,19.30
2018-11-06T16:43:37.102Z,21.70
2018-11-06T16:46:07.902Z,21.97
2018-11-06T16:48:37.435Z,20.87
2018-11-06T16:51:07.769Z,21.67
2018-11-06T16:53:37.264Z,22.07
2018-11-06T16:56:07.324Z,21.43
2018-11-06T16:58:36.833Z,21.37
2018-11-06T17:01:06.713Z,22.70
2018-11-06T17:03:36.010Z,22.27
2018-11-06T17:06:10.936Z,22.30
2018-11-06T17:08:40.482Z,22.53
2018-11-06T17:11:09.892Z,24.07
2018-11-06T17:13:40.016Z,22.97
2018-11-06T17:16:09.442Z,22.77
2018-11-06T17:18:38.943Z,22.17
2018-11-06T17:21:08.780Z,21.10
2018-11-06T17:23:38.374Z,21.73
2018-11-06T17:26:07.832Z,21.77
2018-11-06T17:28:37.495Z,22.00
2018-11-06T17:31:07.153Z,21.43
2018-11-06T17:33:36.836Z,21.33
2018-11-06T17:36:07.450Z,22.37
2018-11-06T17:41:12.410Z,22.30
2018-11-06T17:43:41.887Z,21.83
2018-11-06T17:46:11.343Z,22.72
2018-11-06T17:48:40.884Z,22.43
2018-11-06T17:51:10.363Z,21.33
2018-11-06T17:53:40.129Z,22.30
2018-11-06T17:56:10.366Z,21.87
2018-11-06T17:58:39.749Z,22.33
2018-11-06T18:01:09.216Z,23.17
2018-11-06T18:03:38.672Z,22.47
2018-11-06T18:06:08.466Z,24.00
2018-11-06T18:08:38.237Z,25.13
2018-11-06T18:11:07.785Z,26.43
2018-11-06T18:13:37.315Z,28.33
2018-11-06T18:16:07.131Z,29.83
2018-11-06T18:18:36.677Z,29.27
2018-11-06T18:21:06.552Z,28.57
2018-11-06T18:23:36.130Z,30.57
2018-11-06T18:26:06.228Z,32.20
2018-11-06T18:28:35.903Z,28.50
2018-11-06T18:31:06.221Z,29.77
2018-11-06T18:33:35.707Z,29.17
2018-11-06T18:36:06.402Z,32.73
2018-11-06T18:38:36.194Z,30.93
2018-11-06T18:41:06.618Z,32.30
2018-11-06T18:43:36.006Z,32.33
2018-11-06T18:46:06.651Z,30.95
2018-11-06T18:48:36.519Z,29.60
2018-11-06T18:51:06.337Z,28.27
2018-11-06T18:53:36.173Z,27.63
2018-11-06T18:56:06.527Z,32.50
2018-11-06T18:58:36.054Z,27.90
2018-11-06T19:01:07.048Z,27.13
2018-11-06T19:03:36.477Z,26.10
2018-11-06T19:06:06.430Z,24.70
2018-11-06T19:08:35.944Z,24.90
2018-11-06T19:11:06.654Z,25.60
2018-11-06T19:13:36.163Z,24.13
2018-11-06T19:16:06.347Z,25.73
2018-11-06T19:18:35.805Z,25.40
2018-11-06T19:21:09.712Z,26.73
2018-11-06T19:23:39.263Z,25.97
2018-11-06T19:26:09.130Z,26.37
2018-11-06T19:28:38.709Z,26.27
2018-11-06T19:31:08.164Z,26.30
2018-11-06T19:33:37.706Z,26.57
2018-11-06T19:36:07.201Z,27.67
2018-11-06T19:38:36.960Z,28.40
2018-11-06T19:41:07.123Z,29.83
2018-11-06T19:43:36.699Z,32.53
2018-11-06T19:46:06.666Z,33.90
2018-11-06T19:48:36.179Z,34.90
2018-11-06T19:51:06.502Z,35.45
2018-11-06T19:53:37.487Z,30.77
2018-11-06T19:56:06.959Z,29.93
2018-11-06T19:58:36.411Z,29.37
2018-11-06T20:01:06.367Z,30.33
2018-11-06T20:03:36.324Z,28.57
2018-11-06T20:06:06.761Z,27.62
2018-11-06T20:08:36.249Z,27.20
2018-11-06T20:11:06.806Z,26.93
2018-11-06T20:13:36.324Z,27.80
2018-11-06T20:16:06.326Z,27.37
2018-11-06T20:18:35.975Z,27.27
2018-11-06T20:21:07.018Z,26.40
2018-11-06T20:23:36.526Z,26.40
2018-11-06T20:26:07.935Z,26.73
2018-11-06T20:28:37.642Z,26.23
2018-11-06T20:31:07.279Z,27.67
2018-11-06T20:33:36.811Z,34.30
2018-11-06T20:36:06.636Z,29.63
2018-11-06T20:38:36.085Z,30.57
2018-11-06T20:41:06.242Z,31.65
2018-11-06T20:43:35.635Z,28.60
2018-11-06T20:46:06.693Z,28.57
2018-11-06T20:48:36.186Z,28.83
2018-11-06T20:51:06.623Z,29.82
2018-11-06T20:53:36.095Z,29.03
2018-11-06T20:56:07.276Z,28.58
2018-11-06T20:58:37.295Z,33.40
2018-11-06T21:01:07.703Z,29.70
2018-11-06T21:03:37.173Z,28.80
2018-11-06T21:06:06.917Z,30.40
2018-11-06T21:08:36.555Z,28.50
2018-11-06T21:11:06.607Z,29.80
2018-11-06T21:13:36.135Z,30.13
2018-11-06T21:16:07.168Z,31.00
2018-11-06T21:18:36.651Z,30.53
2018-11-06T21:21:06.573Z,30.10
2018-11-06T21:23:35.980Z,31.47
2018-11-06T21:26:06.672Z,31.45
2018-11-06T21:28:36.175Z,30.87
2018-11-06T21:31:07.858Z,31.42
2018-11-06T21:33:37.413Z,30.43
2018-11-06T21:36:06.832Z,29.90
2018-11-06T21:38:36.406Z,30.50
2018-11-06T21:41:06.463Z,31.45
2018-11-06T21:43:35.998Z,31.37
2018-11-06T21:46:05.555Z,31.37
2018-11-06T21:48:35.072Z,31.90
2018-11-06T21:51:04.514Z,30.37
2018-11-06T21:53:33.995Z,30.07
2018-11-06T21:56:03.863Z,31.13
2018-11-06T21:58:35.434Z,32.17
2018-11-06T22:01:05.395Z,32.97
2018-11-06T22:03:35.767Z,31.47
2018-11-06T22:06:05.311Z,32.07
2018-11-06T22:08:34.971Z,30.40
2018-11-06T22:11:04.940Z,31.47
2018-11-06T22:13:35.091Z,32.90
2018-11-06T22:16:10.448Z,32.73
2018-11-06T22:18:41.342Z,33.63
2018-11-06T22:21:11.715Z,34.10
2018-11-06T22:23:42.867Z,33.23
2018-11-06T22:26:13.180Z,32.73
2018-11-06T22:28:42.721Z,32.93
2018-11-06T22:31:12.400Z,34.80
2018-11-06T22:33:43.500Z,33.07
2018-11-06T22:36:14.072Z,34.03
2018-11-06T22:38:43.927Z,33.98
2018-11-06T22:41:14.394Z,33.78
2018-11-06T22:43:43.948Z,34.33
2018-11-06T22:46:13.514Z,31.85
2018-11-06T22:48:42.953Z,33.33
2018-11-06T22:51:12.496Z,33.25
2018-11-06T22:53:42.064Z,34.23
2018-11-06T22:56:11.688Z,33.63
2018-11-06T22:58:41.215Z,34.63
2018-11-06T23:01:17.748Z,34.03
2018-11-06T23:03:47.592Z,35.07
2018-11-06T23:06:17.392Z,34.00
2018-11-06T23:08:46.606Z,34.13
2018-11-06T23:11:16.088Z,34.80
2018-11-06T23:13:45.701Z,33.63
2018-11-06T23:16:15.486Z,34.63
2018-11-06T23:18:45.059Z,35.07
2018-11-06T23:21:14.970Z,35.70
2018-11-06T23:23:44.637Z,35.07
2018-11-06T23:26:15.367Z,36.95
2018-11-06T23:28:45.085Z,35.27
2018-11-06T23:31:14.540Z,37.60
2018-11-06T23:33:44.543Z,34.80
2018-11-06T23:36:14.112Z,34.23
2018-11-06T23:38:43.658Z,36.40
2018-11-06T23:41:13.113Z,38.25
2018-11-06T23:43:42.543Z,36.77
2018-11-06T23:46:12.133Z,36.13
2018-11-06T23:48:41.953Z,38.10
2018-11-06T23:51:11.427Z,37.73
2018-11-06T23:53:41.866Z,35.93
2018-11-06T23:56:11.321Z,39.33
2018-11-06T23:58:40.941Z,37.53
